Latest Coastal Weather Observations for Hindmarsh Island

IDS60701

Issued at 6:25 am CST Monday 21 April 2014 (issued every 10 minutes, with the page automatically refreshed every 10 minutes)

About coastal observations | Map of coastal stations | Coastal observations for SA | Marine services | Other Formats
Station Details ID: 023894 Name: HINDMARSH ISLAND AWS Lat: -35.52 Lon: 138.82 Height: 11.0 m
Data from the previous 72 hours. | See also: Recent months at Hindmarsh Island
Date/Time
CST
Temp

°C
Wind Pressure Rain
since 9am
mm
Weather Cloud Vis
km
Sea
Height
m
Swell
Dir
 
Speed
knots
Gust
knots
hPa Trend Height
m
Period
s
Dir
21/06:00am 17.1 NNE 12 16 1012.9 - 0.0 - - - - - - -
21/05:30am 15.5 NE 11 13 1013.2 - 0.0 - - - - - - -
21/05:00am 15.2 NE 10 13 1013.1 - 0.0 - - - - - - -
21/04:30am 15.2 NE 12 14 1013.1 - 0.0 - - - - - - -
21/04:00am 14.9 NNE 13 15 1013.3 - 0.0 - - - - - - -
21/03:30am 15.0 NE 13 15 1013.8 - 0.0 - - - - - - -
21/03:00am 15.3 NE 13 17 1014.2 - 0.0 - - - - - - -
21/02:30am 14.7 NNE 10 13 1015.0 - 0.0 - - - - - - -
21/02:00am 14.6 NNE 10 13 1015.3 - 0.0 - - - - - - -
21/01:30am 14.5 N 10 14 1015.9 - 0.0 - - - - - - -
21/01:00am 14.7 NNE 10 14 1016.2 - 0.0 - - - - - - -
21/12:30am 14.3 NNE 9 11 1016.4 - 0.0 - - - - - - -
21/12:00am 14.1 N 9 10 1016.5 - 0.0 - - - - - - -
 
Date/Time
CST
Temp

°C
Wind Pressure Rain
since 9am
mm
Weather Cloud Vis
km
Sea
Height
m
Swell
Dir
 
Speed
knots
Gust
knots
hPa Trend Height
m
Period
s
Dir
20/11:30pm 14.1 N 8 10 1016.8 - 0.0 - - - - - - -
20/11:00pm 13.7 N 9 12 1017.3 - 0.0 - - - - - - -
20/10:30pm 14.4 N 4 6 1017.7 - 0.0 - - - - - - -
20/10:00pm 15.0 NNE 5 6 1018.0 - 0.0 - - - - - - -
20/09:30pm 15.2 CALM 0 0 1018.2 - 0.0 - - - - - - -
20/09:00pm 15.6 CALM 0 0 1018.1 - 0.0 - - - - - - -
20/08:30pm 16.8 SW 3 4 1018.2 - 0.0 - - - - - - -
20/08:00pm 16.9 SSW 5 7 1017.9 - 0.0 - - - - - - -
20/07:30pm 17.1 SSW 9 10 1018.1 - 0.0 - - - - - - -
20/07:00pm 17.3 SSW 9 11 1017.8 - 0.0 - - - - - - -
20/06:30pm 17.5 SW 11 14 1017.9 - 0.0 - - - - - - -
20/06:00pm 17.8 SW 12 15 1017.5 - 0.0 - - - - - - -
20/05:30pm 18.8 WSW 8 10 1017.1 - 0.0 - - - - - - -
20/05:00pm 20.1 W 7 8 1016.9 - 0.0 - - - - - - -
20/04:30pm 20.0 W 11 15 1017.0 - 0.0 - - - - - - -
20/04:00pm 19.8 SW 9 11 1016.9 - 0.0 - - - - - - -
20/03:30pm 20.5 SW 11 14 1016.7 - 0.0 - - - - - - -
20/03:00pm 20.6 SW 6 8 1016.7 - 0.0 - - - - - - -
20/02:30pm 19.7 S 5 6 1016.6 - 0.0 - - - - - - -
20/02:00pm 19.9 S 7 8 1016.7 - 0.0 - - - - - - -
20/01:30pm 21.4 S 9 11 1016.7 - 0.0 - - - - - - -
20/01:00pm 22.0 SSW 9 11 1016.9 - 0.0 - - - - - - -
20/12:30pm 21.3 SSW 6 10 1017.3 - 0.0 - - - - - - -
20/12:00pm 21.7 SW 8 11 1017.6 - 0.0 - - - - - - -
20/11:30am 21.1 WNW 6 11 1017.9 - 0.0 - - - - - - -
20/11:00am 20.0 WNW 7 11 1018.2 - 0.0 - - - - - - -
20/10:30am 20.4 W 7 11 1018.4 - 0.0 - - - - - - -
20/10:00am 19.5 WNW 7 11 1018.7 - 0.0 - - - - - - -
20/09:30am 18.9 NW 8 11 1018.6 - 0.0 - - - - - - -
20/09:00am 17.5 NNW 7 12 1018.8 - 0.0 Fine Mostly clear 12 - - - -
20/08:30am 16.2 N 7 8 1018.5 - 0.0 - - - - - - -
20/08:00am 14.0 NNW 6 9 1018.3 - 0.0 - - - - - - -
20/07:30am 11.9 N 4 6 1018.2 - 0.0 - - - - - - -
20/07:00am 11.3 N 4 5 1017.9 - 0.0 - - - - - - -
20/06:30am 11.6 N 4 5 1017.6 - 0.0 - - - - - - -
20/06:00am 11.6 N 5 6 1017.2 - 0.0 - - - - - - -
20/05:30am 12.1 N 5 6 1017.4 - 0.0 - - - - - - -
20/05:00am 12.2 N 4 6 1017.1 - 0.0 - - - - - - -
20/04:30am 12.4 N 5 7 1017.0 - 0.0 - - - - - - -
20/04:00am 12.8 N 6 8 1016.9 - 0.0 - - - - - - -
20/03:30am 13.2 NNE 5 7 1016.9 - 0.0 - - - - - - -
20/03:00am 13.1 E 3 5 1016.9 - 0.0 - - - - - - -
20/02:30am 13.9 N 4 6 1017.1 - 0.0 - - - - - - -
20/02:00am 13.9 NNW 5 6 1017.5 - 0.0 - - - - - - -
20/01:30am 13.6 NW 6 7 1017.7 - 0.0 - - - - - - -
20/01:00am 13.6 NNW 6 8 1017.6 - 0.0 - - - - - - -
20/12:30am 13.7 N 7 9 1017.5 - 0.0 - - - - - - -
20/12:00am 13.5 N 5 9 1017.6 - 0.0 - - - - - - -
 
Date/Time
CST
Temp

°C
Wind Pressure Rain
since 9am
mm
Weather Cloud Vis
km
Sea
Height
m
Swell
Dir
 
Speed
knots
Gust
knots
hPa Trend Height
m
Period
s
Dir
19/11:30pm 13.6 N 5 7 1017.9 - 0.0 - - - - - - -
19/11:00pm 13.4 N 5 7 1018.1 - 0.0 - - - - - - -
19/10:30pm 13.3 WNW 4 5 1018.6 - 0.0 - - - - - - -
19/10:00pm 13.2 NW 4 5 1018.6 - 0.0 - - - - - - -
19/09:30pm 14.1 NNW 4 5 1018.6 - 0.0 - - - - - - -
19/09:00pm 14.0 NNE 5 5 1018.5 - 0.0 - - - - - - -
19/08:30pm 14.2 NE 4 5 1018.6 - 0.0 - - - - - - -
19/08:00pm 14.0 ENE 5 5 1018.6 - 0.0 - - - - - - -
19/07:30pm 14.8 CALM 0 3 1018.9 - 0.0 - - - - - - -
19/07:00pm 15.1 SSE 4 5 1018.8 - 0.0 - - - - - - -
19/06:30pm 15.2 SW 2 4 1018.8 - 0.0 - - - - - - -
19/06:00pm 15.3 SW 6 8 1018.6 - 0.0 - - - - - - -
19/05:30pm 15.5 WSW 5 7 1018.8 - 0.0 - - - - - - -
19/05:00pm 15.8 WSW 7 9 1018.7 - 0.0 - - - - - - -
19/04:30pm 16.0 WSW 9 12 1019.0 - 0.0 - - - - - - -
19/04:00pm 16.2 WSW 10 12 1019.0 - 0.0 - - - - - - -
19/03:30pm 16.9 SSW 8 11 1019.2 - 0.0 - - - - - - -
19/03:00pm 17.0 S 8 9 1019.1 - 0.0 - - - - - - -
19/02:30pm 17.3 S 9 11 1019.3 - 0.0 - - - - - - -
19/02:00pm 17.1 S 9 11 1019.4 - 0.0 - - - - - - -
19/01:30pm 17.7 SSE 6 9 1019.7 - 0.0 - - - - - - -
19/01:00pm 17.3 S 6 7 1020.2 - 0.0 - - - - - - -
19/12:30pm 17.2 S 6 10 1020.8 - 0.0 - - - - - - -
19/12:00pm 17.9 ESE 3 7 1021.2 - 0.0 - - - - - - -
19/11:30am 18.1 ESE 6 8 1021.6 - 0.0 - - - - - - -
19/11:00am 16.5 NNE 5 7 1022.1 - 0.0 - - - - - - -
19/10:30am 16.8 N 6 8 1022.5 - 0.0 - - - - - - -
19/10:00am 15.8 N 6 7 1022.8 - 0.0 - - - - - - -
19/09:30am 15.5 N 5 7 1023.0 - 0.0 - - - - - - -
19/09:00am 15.2 N 6 7 1022.9 - 0.0 Fine Cloudy 12 - - - -
19/08:30am 14.6 N 5 7 1023.0 - 0.0 - - - - - - -
19/08:00am 13.4 ENE 5 7 1022.8 - 0.0 - - - - - - -
19/07:30am 12.9 E 5 6 1022.5 - 0.0 - - - - - - -
19/07:00am 12.4 NE 3 5 1022.3 - 0.0 - - - - - - -
19/06:30am 12.7 N 4 5 1022.3 - 0.0 - - - - - - -
19/06:00am 12.2 NNE 4 5 1022.0 - 0.0 - - - - - - -
19/05:30am 12.8 ENE 2 4 1022.0 - 0.0 - - - - - - -
19/05:00am 13.5 N 3 5 1022.0 - 0.0 - - - - - - -
19/04:30am 13.3 NNW 5 6 1021.9 - 0.0 - - - - - - -
19/04:00am 13.4 N 4 6 1021.8 - 0.0 - - - - - - -
19/03:30am 13.9 N 5 6 1021.9 - 0.0 - - - - - - -
19/03:00am 14.3 E 4 6 1021.9 - 0.0 - - - - - - -
19/02:30am 14.4 ESE 1 4 1022.2 - 0.0 - - - - - - -
19/02:00am 14.6 SSW 4 7 1022.4 - 0.0 - - - - - - -
19/01:30am 14.4 SW 3 5 1022.6 - 0.0 - - - - - - -
19/01:00am 15.3 S 9 11 1022.7 - 0.0 - - - - - - -
19/12:30am 15.4 SE 8 9 1022.7 - 0.0 - - - - - - -
19/12:00am 15.3 SSE 6 7 1022.7 - 0.0 - - - - - - -
 
Date/Time
CST
Temp

°C
Wind Pressure Rain
since 9am
mm
Weather Cloud Vis
km
Sea
Height
m
Swell
Dir
 
Speed
knots
Gust
knots
hPa Trend Height
m
Period
s
Dir
18/11:30pm 15.3 SSE 8 10 1022.8 - 0.0 - - - - - - -
18/11:00pm 15.1 S 10 12 1022.8 - 0.0 - - - - - - -
18/10:30pm 15.1 S 10 14 1023.1 - 0.0 - - - - - - -
18/10:00pm 15.3 S 11 14 1023.4 - 0.0 - - - - - - -
18/09:30pm 15.6 S 12 15 1023.4 - 0.0 - - - - - - -
18/09:00pm 15.6 S 9 11 1023.2 - 0.0 - - - - - - -
18/08:30pm 15.5 S 9 11 1023.4 - 0.0 - - - - - - -
18/08:00pm 15.5 S 11 14 1023.1 - 0.0 - - - - - - -
18/07:30pm 15.7 S 9 13 1023.0 - 0.0 - - - - - - -
18/07:00pm 15.2 S 10 12 1022.8 - 0.0 - - - - - - -
18/06:30pm 15.6 S 11 15 1022.7 - 0.0 - - - - - - -
18/06:00pm 15.6 S 12 14 1022.5 - 0.0 - - - - - - -
18/05:30pm 16.0 S 13 15 1022.5 - 0.0 - - - - - - -
18/05:00pm 16.3 S 13 14 1022.4 - 0.0 - - - - - - -
18/04:30pm 16.5 SSW 13 16 1022.4 - 0.0 - - - - - - -
18/04:00pm 17.3 S 15 18 1022.2 - 0.0 - - - - - - -
18/03:30pm 17.4 S 16 21 1022.0 - 0.0 - - - - - - -
18/03:00pm 17.4 S 17 21 1021.9 - 0.0 - - - - - - -
18/02:30pm 18.0 S 18 22 1022.0 - 0.0 - - - - - - -
18/02:00pm 17.3 S 17 20 1021.8 - 0.0 - - - - - - -
18/01:30pm 18.6 SSW 16 21 1021.7 - 0.0 - - - - - - -
18/01:00pm 18.0 S 17 20 1021.8 - 0.0 - - - - - - -
18/12:30pm 18.8 SSW 16 19 1021.9 - 0.0 - - - - - - -
18/12:00pm 19.1 SSW 17 20 1022.1 - 0.0 - - - - - - -
18/11:30am 18.5 SSW 19 21 1022.2 - 0.0 - - - - - - -
18/11:00am 18.6 S 19 23 1022.0 - 0.0 - - - - - - -
18/10:30am 18.5 S 20 24 1021.9 - 0.0 - - - - - - -
18/10:00am 17.3 S 20 24 1021.5 - 0.0 - - - - - - -
18/09:30am 18.0 S 21 25 1021.3 - 0.0 - - - - - - -
18/09:00am 17.7 S 21 24 1020.9 - 0.2 Haze Partly cloudy 7 - - - -
18/08:30am 17.5 SSW 17 21 1020.8 - 0.2 - - - - - - -
18/08:00am 17.1 SSW 20 23 1020.0 - 0.2 - - - - - - -
18/07:30am 16.5 SW 16 21 1019.8 - 0.2 - - - - - - -
18/07:00am 15.6 SW 17 21 1019.5 - 0.2 - - - - - - -
18/06:41am 16.0 SSW 21 24 1019.2 - 0.2 - - - - - - -
18/06:30am 16.4 WSW 18 27 1019.2 - 0.2 - - - - - - -
18/06:29am 16.4 WSW 17 27 1019.1 - 0.2 - - - - - - -

Other Formats:

Comma delimited format used in spreadsheet applications
http://www.bom.gov.au/fwo/IDS60701/IDS60701.94677.axf

JavaScript Object Notation format (JSON) in row-major order
http://www.bom.gov.au/fwo/IDS60701/IDS60701.94677.json